Linden Pride — H3VP — position and weather

sailwx.info

Track history (hours):
 
Tides and Currents Weather Stations Pressure Air Temp Water Temp Dewpoint Dewpoint Depression Visibility Wind Speed Wind Dir Waves Ship Positions

Linden Pride

Last reported at 2015-Jun-22 16:33 UTC. Time now 2015-Jul-05 23:20 UTC.
Position N 27°48' W 119°38'.
Warning: this ship's position is 13 days out of date.

Length 230 m; beam 36.6 m.

Type: Tanker. MMSI: 356677000.

Date/timePositionNaut miles runAvg speedWind from/ knotsBaromVisibWave heightAir tempDewpointWater temp
2015-Jun-22 16:33N 27°48' W 119°38'1615.9
2015-Jun-22 15:33N 27°58' W 119°53'1515.2
2015-Jun-22 14:33N 28°06' W 120°07'1815.2
2015-Jun-22 13:24N 28°15' W 120°25'1315.1
2015-Jun-22 12:33N 28°20' W 120°38'1715.0
2015-Jun-22 11:26N 28°29' W 120°54'1315.3
2015-Jun-22 10:33N 28°36' W 121°07'1515.2
2015-Jun-22 09:33N 28°43' W 121°22'1615.2
2015-Jun-22 08:31N 28°51' W 121°38'1515.3
2015-Jun-22 07:33N 28°58' W 121°53'1515.3
2015-Jun-22 06:33N 29°05' W 122°08'1515.3
2015-Jun-22 05:33N 29°12' W 122°24'1515.1
2015-Jun-22 04:32N 29°19' W 122°40'1515.0
2015-Jun-22 03:32N 29°26' W 122°55'1515.0
2015-Jun-22 02:33N 29°32' W 123°10'1615.0
2015-Jun-22 01:30N 29°40' W 123°26'1415.0
2015-Jun-22 00:34N 29°47' W 123°40'  
Track history (hours):
 
Tides and Currents Weather Stations Pressure Air Temp Water Temp Dewpoint Dewpoint Depression Visibility Wind Speed Wind Dir Waves Ship Positions

Linden Pride

Last reported at 2015-Jun-22 16:33 UTC. Time now 2015-Jul-05 23:20 UTC.
Position N 27°48' W 119°38'.
Warning: this ship's position is 13 days out of date.

Length 230 m; beam 36.6 m.

Type: Tanker. MMSI: 356677000.

Date/timePositionNaut miles runAvg speedWind from/ knotsBaromVisibWave heightAir tempDewpointWater temp
2015-Jun-22 16:33N 27°48' W 119°38'1615.9
2015-Jun-22 15:33N 27°58' W 119°53'1515.2
2015-Jun-22 14:33N 28°06' W 120°07'1815.2
2015-Jun-22 13:24N 28°15' W 120°25'1315.1
2015-Jun-22 12:33N 28°20' W 120°38'1715.0
2015-Jun-22 11:26N 28°29' W 120°54'1315.3
2015-Jun-22 10:33N 28°36' W 121°07'1515.2
2015-Jun-22 09:33N 28°43' W 121°22'1615.2
2015-Jun-22 08:31N 28°51' W 121°38'1515.3
2015-Jun-22 07:33N 28°58' W 121°53'1515.3
2015-Jun-22 06:33N 29°05' W 122°08'1515.3
2015-Jun-22 05:33N 29°12' W 122°24'1515.1
2015-Jun-22 04:32N 29°19' W 122°40'1515.0
2015-Jun-22 03:32N 29°26' W 122°55'1515.0
2015-Jun-22 02:33N 29°32' W 123°10'1615.0
2015-Jun-22 01:30N 29°40' W 123°26'1415.0
2015-Jun-22 00:34N 29°47' W 123°40'  

Dump ship's entire track history